Terminal Aerodrome Forecast
Issued by NWS

Home | Current Version | Previous Version | Text Only | Print | Product List | Glossary On
Versions: 1 2 3 4 5 6 7 8 9 10 11 12 13 14 15
000
FTUS43 KDVN 242323
TAFBRL
TAF
KBRL 242323Z 2500/2524 20008KT P6SM BKN200
     FM250700 17006KT 5SM BR SCT200
     FM251400 18012KT P6SM BKN040 PROB30 2515/2519 5SM -TSRA BR
      BKN040CB
     FM251900 18014G20KT P6SM VCTS BKN050CB=

USA.gov is the U.S. government's official web portal to all federal, state and local government web resources and services.